createdAt,value
2023-03-29T00:00:01.348Z,1.88
2023-03-29T00:02:31.087Z,2.30
2023-03-29T00:05:01.936Z,2.25
2023-03-29T00:07:30.217Z,2.10
2023-03-29T00:09:57.962Z,2.17
2023-03-29T00:12:24.989Z,2.20
2023-03-29T00:14:52.035Z,1.80
2023-03-29T00:17:19.246Z,2.15
2023-03-29T00:19:46.501Z,2.25
2023-03-29T00:22:15.501Z,2.00
2023-03-29T00:24:42.257Z,2.30
2023-03-29T00:27:08.981Z,1.92
2023-03-29T00:29:35.779Z,2.42
2023-03-29T00:32:02.577Z,2.13
2023-03-29T00:34:32.741Z,2.20
2023-03-29T00:36:59.458Z,2.20
2023-03-29T00:39:27.937Z,2.53
2023-03-29T00:41:55.712Z,2.45
2023-03-29T00:45:00.509Z,2.85
2023-03-29T00:47:29.170Z,2.88
2023-03-29T00:50:00.229Z,2.95
2023-03-29T00:52:30.209Z,2.55
2023-03-29T00:54:59.458Z,2.60
2023-03-29T00:57:29.126Z,2.60
2023-03-29T00:59:58.339Z,2.90
2023-03-29T01:02:28.594Z,2.50
2023-03-29T01:05:05.318Z,2.63
2023-03-29T01:07:43.295Z,2.50
2023-03-29T01:10:20.405Z,2.63
2023-03-29T01:12:53.393Z,2.78
2023-03-29T01:15:26.362Z,2.80
2023-03-29T01:17:55.604Z,2.50
2023-03-29T01:21:04.982Z,3.15
2023-03-29T01:23:35.220Z,2.42
2023-03-29T01:26:14.618Z,3.28
2023-03-29T01:28:57.096Z,2.40
2023-03-29T01:31:28.304Z,2.95
2023-03-29T01:34:03.464Z,2.40
2023-03-29T01:36:38.473Z,2.60
2023-03-29T01:39:07.220Z,2.60
2023-03-29T01:42:12.929Z,2.85
2023-03-29T01:45:12.826Z,3.08
2023-03-29T01:47:59.756Z,2.80
2023-03-29T01:50:38.971Z,2.80
2023-03-29T01:53:11.458Z,2.95
2023-03-29T01:55:42.836Z,3.03
2023-03-29T01:58:11.720Z,3.00
2023-03-29T02:00:41.274Z,2.88
2023-03-29T02:03:09.933Z,2.90
2023-03-29T02:05:39.394Z,3.03
2023-03-29T02:08:09.139Z,2.70
2023-03-29T02:10:36.738Z,3.03
2023-03-29T02:13:04.380Z,2.97
2023-03-29T02:15:33.564Z,3.33
2023-03-29T02:18:03.978Z,3.17
2023-03-29T02:20:38.756Z,3.72
2023-03-29T02:23:17.983Z,3.58
2023-03-29T02:25:46.484Z,3.60
2023-03-29T02:28:14.085Z,3.72
2023-03-29T02:30:51.314Z,3.80
2023-03-29T02:33:24.190Z,3.88
2023-03-29T02:36:10.310Z,3.75
2023-03-29T02:38:39.115Z,3.58
2023-03-29T02:41:07.319Z,3.97
2023-03-29T02:43:35.431Z,3.83
2023-03-29T02:46:03.290Z,3.85
2023-03-29T02:48:32.338Z,4.53
2023-03-29T02:51:03.820Z,4.30
2023-03-29T02:53:37.853Z,4.38
2023-03-29T02:56:05.126Z,4.50
2023-03-29T02:58:32.063Z,4.85
2023-03-29T03:01:02.024Z,4.55
2023-03-29T03:03:29.460Z,4.47
2023-03-29T03:05:58.579Z,4.32
2023-03-29T03:08:25.371Z,4.38
2023-03-29T03:10:52.688Z,4.80
2023-03-29T03:13:19.694Z,5.13
2023-03-29T03:15:49.213Z,4.85
2023-03-29T03:18:16.710Z,5.03
2023-03-29T03:20:46.895Z,5.30
2023-03-29T03:23:13.731Z,5.68
2023-03-29T03:25:40.744Z,4.80
2023-03-29T03:28:07.863Z,5.20
2023-03-29T03:30:34.650Z,5.70
2023-03-29T03:33:16.935Z,5.05
2023-03-29T03:35:46.376Z,5.00
2023-03-29T03:38:15.229Z,5.15
2023-03-29T03:40:43.327Z,5.50
2023-03-29T03:43:10.374Z,5.40
2023-03-29T03:45:37.241Z,5.05
2023-03-29T03:48:11.683Z,5.40
2023-03-29T03:50:54.952Z,4.97
2023-03-29T03:53:23.625Z,5.05
2023-03-29T03:56:09.250Z,5.82
2023-03-29T03:58:48.384Z,5.10
2023-03-29T04:01:18.131Z,5.30
2023-03-29T04:03:55.225Z,4.72
2023-03-29T04:06:23.427Z,5.05
2023-03-29T04:09:10.978Z,4.97
2023-03-29T04:11:40.745Z,5.40
2023-03-29T04:14:08.213Z,5.63
2023-03-29T04:17:01.372Z,5.57
2023-03-29T04:19:45.323Z,5.65
2023-03-29T04:22:12.425Z,5.88
2023-03-29T04:24:39.238Z,5.35
2023-03-29T04:27:31.816Z,5.85
2023-03-29T04:30:02.069Z,5.45
2023-03-29T04:32:59.482Z,5.40
2023-03-29T04:35:27.197Z,5.93
2023-03-29T04:37:54.626Z,5.85
2023-03-29T04:40:22.845Z,5.60
2023-03-29T04:43:09.269Z,5.35
2023-03-29T04:45:41.755Z,5.25
2023-03-29T04:48:13.554Z,5.53
2023-03-29T04:50:46.699Z,5.57
2023-03-29T04:53:14.998Z,5.90
2023-03-29T04:55:45.928Z,6.38
2023-03-29T04:58:16.069Z,5.57
2023-03-29T05:00:43.841Z,6.18
2023-03-29T05:03:21.073Z,6.35
2023-03-29T05:06:07.100Z,6.13
2023-03-29T05:08:38.909Z,6.05
2023-03-29T05:11:26.461Z,6.93
2023-03-29T05:13:55.625Z,6.78
2023-03-29T05:16:24.734Z,6.85
2023-03-29T05:18:55.345Z,6.47
2023-03-29T05:21:22.739Z,6.55
2023-03-29T05:23:50.921Z,6.65
2023-03-29T05:26:43.816Z,6.03
2023-03-29T05:29:12.306Z,6.65
2023-03-29T05:31:39.523Z,5.90
2023-03-29T05:34:07.499Z,6.40
2023-03-29T05:36:39.130Z,27.52
2023-03-29T05:39:06.872Z,11.60
2023-03-29T05:41:34.509Z,25.83
2023-03-29T05:44:27.432Z,20.52
2023-03-29T05:47:01.988Z,32.25
2023-03-29T05:49:28.833Z,12.95
2023-03-29T05:52:09.253Z,16.88
2023-03-29T05:54:37.603Z,46.92
2023-03-29T05:57:06.194Z,10.50
2023-03-29T05:59:33.853Z,6.63
2023-03-29T06:02:03.127Z,6.68
2023-03-29T06:04:30.770Z,7.93
2023-03-29T06:07:18.277Z,7.22
2023-03-29T06:09:59.153Z,7.25
2023-03-29T06:12:26.107Z,8.75
2023-03-29T06:15:03.472Z,6.35
2023-03-29T06:17:45.813Z,6.45
2023-03-29T06:20:13.872Z,5.68
2023-03-29T06:22:44.226Z,6.15
2023-03-29T06:25:12.295Z,6.43
2023-03-29T06:27:40.623Z,5.80
2023-03-29T06:30:08.087Z,5.70
2023-03-29T06:32:36.101Z,5.47
2023-03-29T06:35:19.478Z,5.20
2023-03-29T06:37:53.717Z,5.32
2023-03-29T06:40:31.806Z,4.80
2023-03-29T06:42:59.907Z,4.88
2023-03-29T06:45:45.200Z,4.63
2023-03-29T06:48:21.313Z,4.72
2023-03-29T06:50:48.984Z,5.03
2023-03-29T06:53:17.170Z,5.13
2023-03-29T06:55:54.425Z,4.70
2023-03-29T06:58:40.783Z,4.40
2023-03-29T07:01:21.810Z,4.78
2023-03-29T07:03:54.782Z,4.70
2023-03-29T07:06:28.590Z,4.30
2023-03-29T07:08:59.656Z,4.07
2023-03-29T07:11:41.590Z,4.72
2023-03-29T07:14:19.051Z,4.63
2023-03-29T07:16:47.181Z,4.93
2023-03-29T07:19:19.906Z,4.80
2023-03-29T07:21:56.410Z,4.28
2023-03-29T07:24:34.801Z,4.55
2023-03-29T07:27:04.568Z,4.72
2023-03-29T07:29:32.984Z,4.53
2023-03-29T07:32:00.137Z,4.05
2023-03-29T07:34:35.549Z,4.63
2023-03-29T07:37:02.636Z,4.30
2023-03-29T07:39:31.147Z,4.10
2023-03-29T07:42:39.351Z,4.28
2023-03-29T07:45:09.846Z,4.25
2023-03-29T07:47:48.890Z,4.32
2023-03-29T07:50:17.451Z,4.38
2023-03-29T07:52:44.712Z,4.60
2023-03-29T07:55:13.228Z,4.40
2023-03-29T07:57:53.542Z,4.60
2023-03-29T08:00:21.333Z,4.35
2023-03-29T08:03:05.845Z,3.95
2023-03-29T08:05:40.658Z,4.15
2023-03-29T08:08:14.236Z,4.10
2023-03-29T08:10:49.986Z,3.95
2023-03-29T08:13:32.172Z,3.88
2023-03-29T08:16:21.951Z,4.10
2023-03-29T08:18:55.875Z,4.00
2023-03-29T08:21:26.473Z,3.90
2023-03-29T08:23:53.630Z,4.47
2023-03-29T08:26:25.227Z,4.18
2023-03-29T08:28:52.166Z,4.35
2023-03-29T08:31:20.847Z,3.75
2023-03-29T08:33:48.149Z,3.97
2023-03-29T08:36:33.504Z,4.30
2023-03-29T08:39:07.405Z,4.13
2023-03-29T08:42:31.059Z,4.22
2023-03-29T08:45:03.665Z,3.70
2023-03-29T08:47:42.305Z,4.00
2023-03-29T08:50:13.957Z,3.70
2023-03-29T08:52:52.827Z,3.95
2023-03-29T08:55:48.485Z,3.80
2023-03-29T08:58:42.435Z,3.90
2023-03-29T09:01:11.362Z,3.92
2023-03-29T09:04:09.731Z,4.25
2023-03-29T09:06:48.610Z,4.15
2023-03-29T09:09:29.092Z,3.78
2023-03-29T09:12:22.254Z,4.10
2023-03-29T09:15:12.608Z,4.30
2023-03-29T09:17:51.863Z,3.95
2023-03-29T09:20:43.717Z,4.40
2023-03-29T09:23:31.641Z,4.57
2023-03-29T09:26:34.513Z,4.55
2023-03-29T09:29:29.928Z,4.70
2023-03-29T09:31:57.160Z,4.20
2023-03-29T09:34:34.245Z,4.40
2023-03-29T09:37:14.672Z,4.25
2023-03-29T09:39:42.614Z,4.40
2023-03-29T09:42:15.360Z,4.22
2023-03-29T09:44:50.879Z,4.28
2023-03-29T09:47:36.122Z,3.83
2023-03-29T09:50:30.289Z,4.70
2023-03-29T09:53:01.132Z,4.40
2023-03-29T09:55:33.842Z,4.85
2023-03-29T09:58:22.740Z,4.78
2023-03-29T10:00:53.082Z,4.95
2023-03-29T10:03:23.853Z,4.90
2023-03-29T10:06:01.523Z,5.03
2023-03-29T10:08:36.519Z,5.22
2023-03-29T10:11:19.944Z,4.95
2023-03-29T10:13:50.527Z,4.75
2023-03-29T10:16:46.646Z,5.07
2023-03-29T10:19:19.989Z,4.97
2023-03-29T10:21:52.803Z,5.07
2023-03-29T10:24:21.691Z,5.40
2023-03-29T10:26:55.489Z,4.82
2023-03-29T10:29:24.609Z,5.05
2023-03-29T10:31:52.847Z,5.13
2023-03-29T10:34:25.178Z,4.40
2023-03-29T10:36:58.666Z,4.47
2023-03-29T10:39:29.229Z,4.68
2023-03-29T10:41:57.978Z,4.88
2023-03-29T10:44:36.346Z,5.32
2023-03-29T10:47:17.534Z,5.32
2023-03-29T10:49:50.891Z,4.95
2023-03-29T10:52:17.924Z,4.78
2023-03-29T10:54:46.265Z,4.43
2023-03-29T10:57:20.373Z,5.00
2023-03-29T11:00:02.846Z,4.80
2023-03-29T11:02:55.565Z,4.72
2023-03-29T11:05:40.287Z,4.97
2023-03-29T11:08:31.650Z,4.80
2023-03-29T11:11:36.633Z,5.28
2023-03-29T11:14:14.441Z,5.18
2023-03-29T11:17:02.513Z,4.60
2023-03-29T11:19:32.300Z,5.00
2023-03-29T11:22:16.864Z,5.15
2023-03-29T11:25:02.950Z,4.93
2023-03-29T11:27:53.167Z,4.50
2023-03-29T11:30:47.217Z,5.60
2023-03-29T11:33:14.191Z,4.78
2023-03-29T11:36:04.887Z,4.95
2023-03-29T11:38:47.846Z,5.07
2023-03-29T11:41:38.404Z,5.03
2023-03-29T11:44:31.625Z,4.78
2023-03-29T11:47:08.983Z,4.90
2023-03-29T11:49:44.333Z,4.68
2023-03-29T11:52:29.604Z,5.47
2023-03-29T11:55:05.309Z,4.90
2023-03-29T11:57:37.378Z,4.68
2023-03-29T12:00:18.854Z,5.38
2023-03-29T12:03:02.860Z,5.13
2023-03-29T12:05:52.262Z,4.95
2023-03-29T12:08:31.217Z,4.75
2023-03-29T12:11:13.499Z,5.28
2023-03-29T12:13:45.612Z,4.82
2023-03-29T12:16:21.906Z,5.25
2023-03-29T12:18:51.420Z,5.65
2023-03-29T12:21:21.697Z,4.93
2023-03-29T12:23:51.856Z,5.15
2023-03-29T12:26:45.924Z,5.07
2023-03-29T12:29:34.317Z,5.07
2023-03-29T12:32:12.885Z,5.53
2023-03-29T12:35:23.105Z,5.57
2023-03-29T12:38:24.637Z,5.72
2023-03-29T12:41:17.187Z,5.15
2023-03-29T12:44:03.892Z,4.90
2023-03-29T12:46:51.000Z,5.55
2023-03-29T12:49:35.897Z,5.13
2023-03-29T12:52:13.618Z,5.20
2023-03-29T12:54:40.656Z,5.00
2023-03-29T12:57:26.381Z,5.45
2023-03-29T12:59:53.489Z,5.20
2023-03-29T13:02:27.162Z,6.15
2023-03-29T13:04:56.643Z,5.22
2023-03-29T13:07:23.663Z,5.72
2023-03-29T13:09:51.963Z,5.13
2023-03-29T13:12:36.733Z,5.10
2023-03-29T13:15:21.953Z,5.30
2023-03-29T13:18:03.571Z,5.50
2023-03-29T13:20:45.652Z,5.10
2023-03-29T13:23:41.124Z,4.93
2023-03-29T13:26:52.854Z,4.78
2023-03-29T13:29:53.388Z,5.30
2023-03-29T13:32:53.158Z,5.20
2023-03-29T13:35:23.176Z,5.70
2023-03-29T13:38:03.621Z,6.13
2023-03-29T13:40:30.409Z,5.60
2023-03-29T13:43:09.734Z,6.13
2023-03-29T13:45:37.079Z,5.30
2023-03-29T13:48:24.791Z,6.18
2023-03-29T13:51:02.082Z,5.88
2023-03-29T13:53:33.040Z,5.47
2023-03-29T13:56:00.481Z,5.82
2023-03-29T13:58:27.429Z,5.35
2023-03-29T14:01:29.460Z,5.88
2023-03-29T14:03:57.513Z,5.45
2023-03-29T14:06:33.119Z,4.70
2023-03-29T14:09:06.350Z,5.25
2023-03-29T14:11:33.664Z,5.28
2023-03-29T14:14:03.377Z,4.72
2023-03-29T14:16:35.235Z,5.05
2023-03-29T14:19:18.205Z,5.20
2023-03-29T14:21:45.950Z,5.47
2023-03-29T14:24:20.593Z,5.53
2023-03-29T14:26:47.819Z,5.38
2023-03-29T14:29:14.850Z,5.75
2023-03-29T14:31:42.524Z,5.18
2023-03-29T14:34:18.320Z,5.95
2023-03-29T14:36:48.969Z,6.25
2023-03-29T14:39:21.502Z,6.18
2023-03-29T14:41:53.819Z,5.72
2023-03-29T14:44:24.122Z,6.00
2023-03-29T14:46:51.259Z,6.43
2023-03-29T14:49:20.593Z,5.72
2023-03-29T14:51:49.179Z,7.13
2023-03-29T14:54:23.423Z,7.30
2023-03-29T14:56:50.728Z,6.97
2023-03-29T14:59:37.725Z,7.10
2023-03-29T15:02:21.670Z,7.28
2023-03-29T15:04:55.820Z,7.07
2023-03-29T15:07:25.165Z,7.18
2023-03-29T15:09:52.069Z,7.20
2023-03-29T15:12:18.977Z,7.28
2023-03-29T15:14:46.124Z,7.28
2023-03-29T15:17:50.166Z,7.20
2023-03-29T15:20:31.706Z,7.28
2023-03-29T15:23:00.968Z,7.60
2023-03-29T15:25:51.013Z,8.20
2023-03-29T15:28:28.501Z,7.65
2023-03-29T15:31:07.854Z,8.60
2023-03-29T15:33:37.926Z,7.82
2023-03-29T15:36:06.913Z,7.40
2023-03-29T15:38:43.069Z,7.63
2023-03-29T15:41:12.170Z,7.38
2023-03-29T15:43:39.048Z,7.50
2023-03-29T15:46:05.934Z,7.78
2023-03-29T15:48:33.774Z,7.55
2023-03-29T15:51:04.831Z,7.82
2023-03-29T15:53:33.707Z,7.72
2023-03-29T15:56:02.545Z,7.65
2023-03-29T15:58:31.733Z,8.30
2023-03-29T16:01:34.341Z,8.15
2023-03-29T16:04:07.312Z,8.45
2023-03-29T16:06:34.766Z,7.90
2023-03-29T16:09:02.368Z,8.07
2023-03-29T16:11:29.170Z,8.50
2023-03-29T16:13:56.647Z,7.78
2023-03-29T16:16:24.187Z,8.73
2023-03-29T16:18:51.149Z,8.40
2023-03-29T16:21:19.669Z,7.88
2023-03-29T16:23:47.146Z,8.82
2023-03-29T16:26:16.269Z,8.30
2023-03-29T16:28:43.600Z,8.88
2023-03-29T16:31:11.813Z,8.13
2023-03-29T16:33:39.509Z,9.07
2023-03-29T16:36:07.314Z,8.70
2023-03-29T16:38:34.285Z,8.75
2023-03-29T16:41:01.768Z,8.73
2023-03-29T16:43:28.955Z,11.00
2023-03-29T16:45:56.864Z,14.00
2023-03-29T16:48:24.048Z,9.80
2023-03-29T16:50:51.130Z,9.43
2023-03-29T16:53:18.850Z,10.70
2023-03-29T16:55:46.686Z,9.40
2023-03-29T16:58:15.159Z,9.60
2023-03-29T17:00:42.042Z,9.68
2023-03-29T17:03:09.011Z,8.82
2023-03-29T17:05:41.207Z,10.55
2023-03-29T17:08:10.024Z,13.70
2023-03-29T17:10:40.589Z,9.70
2023-03-29T17:13:08.100Z,9.18
2023-03-29T17:15:38.109Z,9.05
2023-03-29T17:18:06.444Z,9.18
2023-03-29T17:20:33.303Z,10.13
2023-03-29T17:23:00.122Z,11.55
2023-03-29T17:25:26.883Z,12.05
2023-03-29T17:27:54.064Z,11.55
2023-03-29T17:30:21.098Z,11.02
2023-03-29T17:32:47.881Z,10.68
2023-03-29T17:35:14.636Z,11.38
2023-03-29T17:37:42.492Z,11.63
2023-03-29T17:40:15.700Z,10.52
2023-03-29T17:42:43.597Z,11.07
2023-03-29T17:45:11.303Z,11.70
2023-03-29T17:47:38.779Z,11.18
2023-03-29T17:50:06.933Z,11.73
2023-03-29T17:52:33.839Z,10.90
2023-03-29T17:55:00.875Z,11.20
2023-03-29T17:57:27.903Z,11.63
2023-03-29T17:59:54.870Z,11.68
2023-03-29T18:02:23.517Z,11.82
2023-03-29T18:04:50.860Z,13.25
2023-03-29T18:07:17.834Z,12.48
2023-03-29T18:09:44.698Z,12.48
2023-03-29T18:12:11.628Z,13.75
2023-03-29T18:14:38.384Z,11.85
2023-03-29T18:17:05.446Z,13.00
2023-03-29T18:19:32.385Z,13.43
2023-03-29T18:21:59.353Z,12.85
2023-03-29T18:24:26.224Z,12.93
2023-03-29T18:26:53.009Z,13.15
2023-03-29T18:29:19.769Z,12.95
2023-03-29T18:31:46.693Z,14.38
2023-03-29T18:34:13.632Z,14.82
2023-03-29T18:36:40.586Z,14.63
2023-03-29T18:39:07.341Z,14.02
2023-03-29T18:41:35.595Z,13.70
2023-03-29T18:44:03.123Z,13.50
2023-03-29T18:46:31.636Z,13.32
2023-03-29T18:49:01.121Z,14.60
2023-03-29T18:51:28.199Z,14.07
2023-03-29T18:53:55.948Z,15.63
2023-03-29T18:56:23.932Z,15.40
2023-03-29T18:58:50.678Z,14.88
2023-03-29T19:01:17.510Z,14.48
2023-03-29T19:03:44.564Z,13.88
2023-03-29T19:06:11.856Z,12.48
2023-03-29T19:08:41.150Z,12.15
2023-03-29T19:11:10.323Z,13.07
2023-03-29T19:13:37.452Z,13.35
2023-03-29T19:16:04.854Z,12.85
2023-03-29T19:18:32.186Z,12.00
2023-03-29T19:20:58.927Z,12.07
2023-03-29T19:23:28.044Z,12.90
2023-03-29T19:25:57.054Z,11.90
2023-03-29T19:28:25.158Z,12.65
2023-03-29T19:30:52.028Z,12.60
2023-03-29T19:33:19.892Z,12.75
2023-03-29T19:35:49.054Z,12.75
2023-03-29T19:38:15.997Z,12.52
2023-03-29T19:40:47.349Z,12.55
2023-03-29T19:43:16.491Z,11.50
2023-03-29T19:45:44.104Z,12.32
2023-03-29T19:48:21.174Z,14.38
2023-03-29T19:50:48.952Z,16.85
2023-03-29T19:53:15.690Z,16.33
2023-03-29T19:55:44.142Z,13.27
2023-03-29T19:58:10.993Z,17.27
2023-03-29T20:00:38.909Z,15.80
2023-03-29T20:03:10.094Z,12.95
2023-03-29T20:05:38.732Z,29.48
2023-03-29T20:08:07.044Z,33.08
2023-03-29T20:10:35.834Z,30.00
2023-03-29T20:13:03.382Z,25.80
2023-03-29T20:15:30.105Z,14.38
2023-03-29T20:17:59.379Z,13.48
2023-03-29T20:20:26.762Z,12.98
2023-03-29T20:23:04.757Z,13.48
2023-03-29T20:25:34.444Z,11.02
2023-03-29T20:28:01.144Z,9.07
2023-03-29T20:30:28.000Z,8.85
2023-03-29T20:32:54.709Z,10.35
2023-03-29T20:35:21.935Z,10.57
2023-03-29T20:37:48.688Z,10.05
2023-03-29T20:40:15.982Z,10.23
2023-03-29T20:42:42.780Z,9.90
2023-03-29T20:45:18.586Z,9.65
2023-03-29T20:47:57.335Z,9.50
2023-03-29T20:50:28.362Z,9.48
2023-03-29T20:52:56.352Z,9.23
2023-03-29T20:55:24.026Z,10.10
2023-03-29T20:57:54.181Z,8.80
2023-03-29T21:00:22.407Z,9.82
2023-03-29T21:02:49.230Z,9.55
2023-03-29T21:05:16.168Z,10.02
2023-03-29T21:07:44.659Z,9.68
2023-03-29T21:10:12.374Z,9.00
2023-03-29T21:12:39.990Z,11.13
2023-03-29T21:15:11.044Z,63.72
2023-03-29T21:17:37.970Z,39.90
2023-03-29T21:20:11.019Z,59.20
2023-03-29T21:22:39.255Z,29.05
2023-03-29T21:25:15.629Z,17.58
2023-03-29T21:27:42.424Z,10.27
2023-03-29T21:30:09.742Z,9.77
2023-03-29T21:32:36.614Z,8.68
2023-03-29T21:35:03.430Z,8.40
2023-03-29T21:37:30.277Z,7.25
2023-03-29T21:39:57.031Z,8.55
2023-03-29T21:42:23.853Z,7.53
2023-03-29T21:44:50.600Z,6.68
2023-03-29T21:47:17.396Z,7.22
2023-03-29T21:49:44.238Z,7.90
2023-03-29T21:52:11.066Z,7.22
2023-03-29T21:54:37.794Z,7.13
2023-03-29T21:57:04.619Z,7.47
2023-03-29T21:59:31.394Z,7.78
2023-03-29T22:01:58.117Z,9.32
2023-03-29T22:04:36.016Z,9.75
2023-03-29T22:07:03.904Z,9.25
2023-03-29T22:09:32.936Z,9.13
2023-03-29T22:11:59.749Z,9.07
2023-03-29T22:14:29.323Z,9.52
2023-03-29T22:16:56.096Z,10.23
2023-03-29T22:19:22.830Z,9.25
2023-03-29T22:21:51.398Z,9.15
2023-03-29T22:24:18.792Z,9.02
2023-03-29T22:26:46.032Z,8.43
2023-03-29T22:29:12.838Z,8.38
2023-03-29T22:31:39.732Z,8.85
2023-03-29T22:34:06.761Z,8.48
2023-03-29T22:36:33.641Z,7.95
2023-03-29T22:39:00.539Z,8.63
2023-03-29T22:41:28.174Z,8.13
2023-03-29T22:43:57.291Z,7.93
2023-03-29T22:46:24.936Z,7.78
2023-03-29T22:48:52.311Z,7.90
2023-03-29T22:51:20.103Z,7.70
2023-03-29T22:53:47.092Z,8.25
2023-03-29T22:56:15.556Z,7.50
2023-03-29T22:58:42.475Z,8.38
2023-03-29T23:01:09.427Z,7.80
2023-03-29T23:03:36.761Z,7.45
2023-03-29T23:06:04.142Z,8.07
2023-03-29T23:08:32.269Z,7.57
2023-03-29T23:10:59.665Z,7.22
2023-03-29T23:13:28.761Z,7.53
2023-03-29T23:15:58.831Z,7.72
2023-03-29T23:18:28.419Z,7.55
2023-03-29T23:20:57.446Z,7.88
2023-03-29T23:23:26.764Z,6.75
2023-03-29T23:25:54.459Z,7.97
2023-03-29T23:28:24.872Z,7.22
2023-03-29T23:30:55.822Z,7.00
2023-03-29T23:33:23.254Z,7.10
2023-03-29T23:35:50.285Z,6.90
2023-03-29T23:38:17.181Z,7.53
2023-03-29T23:40:44.033Z,7.35
2023-03-29T23:43:11.000Z,7.13
2023-03-29T23:45:37.720Z,6.40
2023-03-29T23:48:04.497Z,7.00
2023-03-29T23:50:31.197Z,6.68
2023-03-29T23:52:58.312Z,5.70
2023-03-29T23:55:25.070Z,6.35
2023-03-29T23:57:51.835Z,7.10
